Time;durP1;ratioP1;P1;durP2;ratioP2;P2;SDS_P1;SDS_P2;PMS_P1;PMS_P2;Temp;Humidity;BMP_temperature;BMP_pressure;BME280_temperature;BME280_humidity;BME280_pressure;Samples;Min_cycle;Max_cycle;Signal;HPM_P1;HPM_P2
2024/03/04 10:38:36;;;;;;;;;;;;;;;;;;;;;
2024/03/04 10:40:55;;;;;;;;;;;;;;;6.11;100.00;100633.84;1657736;86;20154;-74
2024/03/04 10:43:22;;;;;;;;;;;;;;;6.10;100.00;100633.44;1665268;86;20167;-77
2024/03/04 10:45:53;;;;;;;;;;;;;;;6.06;100.00;100636.56;1661586;85;20110;-74
2024/03/04 10:51:58;;;;;;;;;;;;;;;5.98;100.00;100635.95;1647028;86;20117;-74
2024/03/04 10:54:26;;;;;;;;;;;;;;;5.95;100.00;100621.38;1662523;85;20153;-72
2024/03/04 10:56:58;;;;;;;;;;;;;;;5.99;100.00;100623.43;1655479;86;20244;-76
2024/03/04 10:59:28;;;;;;;;;;;;;;;6.03;100.00;100618.55;1662555;86;20634;-74
2024/03/04 11:01:56;;;;;;;;;;;;;;;6.05;100.00;100618.06;1661878;86;20205;-77
2024/03/04 11:04:29;;;;;;;;;;;;;;;6.05;100.00;100622.38;1656264;86;20264;-74
2024/03/04 11:06:56;;;;;;;;;;;;;;;6.03;100.00;100622.42;1656047;85;20155;-73
2024/03/04 11:09:22;;;;;;;;;;;;;;;6.03;100.00;100618.09;1652295;86;20517;-73
2024/03/04 11:11:54;;;;;;;;;;;;;;;6.05;100.00;100640.03;1676764;85;20296;-73
2024/03/04 11:14:33;;;;;;;;;;;;;;;6.04;100.00;100606.02;1691813;85;20138;-72
2024/03/04 11:17:03;;;;;;;;;;;;;;;6.01;100.00;100608.25;1691618;85;20166;-75
2024/03/04 11:19:45;;;;;;;;;;;;;;;6.02;100.00;100610.39;1775537;80;20138;-72
2024/03/04 11:22:12;;;;;;;;;;;;;;;6.10;100.00;100604.56;1760257;80;20085;-72
2024/03/04 11:24:38;;;;;;;;;;;;;;;6.15;100.00;100604.43;1772182;80;20100;-74
2024/03/04 11:27:05;;;;;;;;;;;;;;;6.17;100.00;100606.53;1783658;80;20124;-72
2024/03/04 11:29:35;;;;;;;;;;;;;;;6.18;100.00;100601.76;1770745;80;20105;-73
2024/03/04 11:32:01;;;;;;;;;;;;;;;6.19;100.00;100600.42;1785378;80;20100;-73
2024/03/04 11:34:28;;;;;;;;;;;;;;;6.20;100.00;100596.09;1725336;80;20120;-73
2024/03/04 11:36:59;;;;;;;;;;;;;;;6.24;100.00;100596.41;1793763;80;20186;-71
2024/03/04 11:39:26;;;;;;;;;;;;;;;6.29;100.00;100595.83;1753194;81;20132;-75
2024/03/04 11:41:52;;;;;;;;;;;;;;;6.32;100.00;100589.28;1768861;81;20117;-72
2024/03/04 11:44:20;;;;;;;;;;;;;;;6.38;100.00;100592.98;1771775;81;20128;-74
2024/03/04 11:46:50;;;;;;;;;;;;;;;6.43;100.00;100587.64;1777153;80;20108;-74
2024/03/04 11:49:26;;;;;;;;;;;;;;;6.45;100.00;100593.17;1762146;80;20409;-73
2024/03/04 11:52:14;;;;;;;;;;;;;;;6.51;100.00;100593.44;1747785;82;20111;-72
2024/03/04 11:54:40;;;;;;;;;;;;;;;6.51;100.00;100589.55;1739531;81;20116;-72
2024/03/04 11:57:07;;;;;;;;;;;;;;;6.53;100.00;100592.94;1767194;81;20116;-75
2024/03/04 11:59:40;;;;;;;;;;;;;;;6.55;100.00;100590.70;1759879;81;20126;-72
2024/03/04 12:02:09;;;;;;;;;;;;;;;6.55;100.00;100589.41;1750431;80;20163;-71
2024/03/04 12:04:35;;;;;;;;;;;;;;;6.58;100.00;100585.44;1761499;80;20161;-72
2024/03/04 12:07:04;;;;;;;;;;;;;;;6.62;100.00;100593.52;1775894;81;20105;-73
2024/03/04 12:09:41;;;;;;;;;;;;;;;6.61;100.00;100592.27;1743062;81;20163;-72
2024/03/04 12:12:13;;;;;;;;;;;;;;;6.57;100.00;100588.08;1774955;81;20425;-73
2024/03/04 12:14:46;;;;;;;;;;;;;;;6.53;100.00;100586.47;1774995;81;20159;-70
2024/03/04 12:17:28;;;;;;;;;;;;;;;6.46;100.00;100583.67;1719071;82;20270;-73
2024/03/04 12:20:03;;;;;;;;;;;;;;;6.41;100.00;100582.51;1735020;80;20159;-73
2024/03/04 12:22:37;;;;;;;;;;;;;;;6.38;100.00;100581.34;1745823;82;20146;-74
2024/03/04 12:25:15;;;;;;;;;;;;;;;6.37;100.00;100575.77;1746564;81;20124;-75
2024/03/04 12:27:44;;;;;;;;;;;;;;;6.38;100.00;100577.91;1761467;80;20235;-73
2024/03/04 12:30:22;;;;;;;;;;;;;;;6.35;100.00;100571.93;1762823;80;20128;-75
2024/03/04 12:32:53;;;;;;;;;;;;;;;6.34;100.00;100574.12;1751608;81;20388;-72
2024/03/04 12:35:31;;;;;;;;;;;;;;;6.37;100.00;100574.47;1755501;80;20115;-71
2024/03/04 12:37:59;;;;;;;;;;;;;;;6.41;100.00;100572.16;1751137;82;20111;-76
2024/03/04 12:40:26;;;;;;;;;;;;;;;6.49;100.00;100564.17;1756908;80;20142;-73
2024/03/04 12:42:58;;;;;;;;;;;;;;;6.52;100.00;100571.84;1771177;81;20195;-73
2024/03/04 12:45:26;;;;;;;;;;;;;;;6.53;100.00;100561.45;1757324;80;20126;-72
2024/03/04 12:47:53;;;;;;;;;;;;;;;6.54;100.00;100563.14;1750857;81;20127;-75
2024/03/04 12:50:20;;;;;;;;;;;;;;;6.56;100.00;100563.94;1751065;82;20095;-77
2024/03/04 12:52:47;;;;;;;;;;;;;;;6.56;100.00;100560.06;1756392;80;20107;-74
